Terminal Aerodrome Forecast
Issued by NWS

Home | Current Version | Previous Version | Text Only | Print | Product List | Glossary Off
Versions: 1 2 3 4 5 6 7 8 9 10 11 12 13 14 15 16 17 18 19 20 21 22 23

000
FTUS42 KMHX 302339
TAFPGV
TAF
KPGV 302339Z 0100/0124 03005KT P6SM VCSH OVC015
     FM010700 VRB02KT 4SM BR VCSH OVC007
     FM011200 35008KT 5SM -RA SCT007 OVC015
     FM011700 36014G22KT 6SM -RA OVC015
      AMD LTD TO CLD VIS AND WIND=

USA.gov is the U.S. government's official web portal to all federal, state and local government web resources and services.